Time;durP1;ratioP1;P1;durP2;ratioP2;P2;SDS_P1;SDS_P2;PMS_P1;PMS_P2;Temp;Humidity;BMP_temperature;BMP_pressure;BME280_temperature;BME280_humidity;BME280_pressure;Samples;Min_cycle;Max_cycle;Signal;HPM_P1;HPM_P2
2022/05/28 00:00:09;;;;;;;;;;;;;;;15.86;39.97;102349.03;7358362;19;19950;-60
2022/05/28 00:02:34;;;;;;;;;;;;;;;15.81;39.97;102349.13;7356450;19;19914;-61
2022/05/28 00:04:59;;;;;;;;;;;;;;;15.76;39.58;102356.22;7356805;19;20327;-60
2022/05/28 00:07:25;;;;;;;;;;;;;;;15.65;39.37;102345.91;7358367;19;20892;-61
2022/05/28 00:09:50;;;;;;;;;;;;;;;15.64;39.48;102357.34;7360196;19;19915;-61
2022/05/28 00:12:15;;;;;;;;;;;;;;;15.56;40.06;102361.81;7357141;19;19977;-61
2022/05/28 00:14:40;;;;;;;;;;;;;;;15.50;40.25;102356.66;7359110;19;20013;-61
2022/05/28 00:17:06;;;;;;;;;;;;;;;15.43;40.15;102360.28;7357849;19;20395;-61
2022/05/28 00:19:31;;;;;;;;;;;;;;;15.36;40.29;102361.28;7359458;19;19911;-61
2022/05/28 00:21:56;;;;;;;;;;;;;;;15.30;40.22;102355.22;7359155;19;19919;-61
2022/05/28 00:24:21;;;;;;;;;;;;;;;15.25;40.15;102357.06;7355556;19;20350;-61
2022/05/28 00:26:47;;;;;;;;;;;;;;;15.21;40.38;102359.78;7356175;19;19997;-61
2022/05/28 00:29:12;;;;;;;;;;;;;;;15.14;40.44;102364.25;7358387;19;20370;-61
2022/05/28 00:31:37;;;;;;;;;;;;;;;15.10;40.34;102367.81;7358762;19;19927;-61
2022/05/28 00:34:03;;;;;;;;;;;;;;;15.04;40.74;102368.78;7360104;19;20702;-61
2022/05/28 00:36:28;;;;;;;;;;;;;;;14.98;40.70;102362.75;7356911;19;19915;-60
2022/05/28 00:38:54;;;;;;;;;;;;;;;14.93;40.43;102359.31;7358110;19;19915;-61
2022/05/28 00:41:19;;;;;;;;;;;;;;;14.88;40.90;102372.53;7360177;19;19918;-61
2022/05/28 00:43:45;;;;;;;;;;;;;;;14.84;41.14;102369.94;7358442;19;19931;-61
2022/05/28 00:46:16;;;;;;;;;;;;;;;14.79;40.82;102372.63;7358111;19;19923;-61
2022/05/28 00:48:46;;;;;;;;;;;;;;;14.74;41.34;102370.06;7363197;19;20714;-61
2022/05/28 00:51:15;;;;;;;;;;;;;;;14.70;41.09;102367.50;7365342;19;19914;-61
2022/05/28 00:53:40;;;;;;;;;;;;;;;14.65;41.27;102369.31;7364552;19;19915;-61
2022/05/28 00:56:06;;;;;;;;;;;;;;;14.61;41.41;102373.78;7359671;19;19911;-60
2022/05/28 00:58:31;;;;;;;;;;;;;;;14.58;41.23;102380.81;7367688;19;19911;-61
2022/05/28 01:00:57;;;;;;;;;;;;;;;14.52;40.80;102374.75;7369466;19;19925;-61
2022/05/28 01:03:26;;;;;;;;;;;;;;;14.47;40.81;102365.16;7367387;19;19927;-61
2022/05/28 01:05:52;;;;;;;;;;;;;;;14.40;41.35;102366.13;7366448;19;20428;-60
2022/05/28 01:08:39;;;;;;;;;;;;;;;14.34;41.29;102358.28;7369641;19;19923;-61
2022/05/28 01:11:14;;;;;;;;;;;;;;;14.27;41.94;102347.84;7362820;19;19915;-61
2022/05/28 01:13:51;;;;;;;;;;;;;;;14.24;41.92;102363.66;7369745;19;19921;-61
2022/05/28 01:16:37;;;;;;;;;;;;;;;14.21;41.67;102355.81;7355900;19;19941;-61
2022/05/28 01:19:27;;;;;;;;;;;;;;;14.18;41.69;102358.47;7366752;19;20305;-61
2022/05/28 01:21:52;;;;;;;;;;;;;;;14.13;41.63;102357.63;7369145;19;19926;-61
2022/05/28 01:24:17;;;;;;;;;;;;;;;14.09;41.71;102361.22;7368031;19;20328;-61
2022/05/28 01:26:44;;;;;;;;;;;;;;;14.05;41.78;102369.13;7366302;19;19914;-61
2022/05/28 01:29:13;;;;;;;;;;;;;;;14.00;41.92;102369.19;7365718;19;19930;-61
2022/05/28 01:31:38;;;;;;;;;;;;;;;13.95;42.09;102360.47;7369071;19;20017;-61
2022/05/28 01:34:05;;;;;;;;;;;;;;;13.91;42.22;102354.38;7365551;19;20017;-61
2022/05/28 01:36:32;;;;;;;;;;;;;;;13.88;42.09;102348.28;7367361;19;20315;-61
2022/05/28 01:38:57;;;;;;;;;;;;;;;13.84;42.40;102347.47;7366666;19;19923;-61
2022/05/28 01:41:23;;;;;;;;;;;;;;;13.81;42.05;102342.22;7368692;19;19933;-61
2022/05/28 01:43:50;;;;;;;;;;;;;;;13.77;42.26;102351.00;7366877;19;19947;-61
2022/05/28 01:46:17;;;;;;;;;;;;;;;13.70;42.24;102350.22;7368795;19;19927;-61
2022/05/28 01:48:44;;;;;;;;;;;;;;;13.66;41.93;102345.88;7363961;19;19953;-61
2022/05/28 01:51:10;;;;;;;;;;;;;;;13.60;42.28;102345.94;7366986;19;20888;-61
2022/05/28 01:56:21;;;;;;;;;;;;;;;13.50;42.37;102341.66;7367538;19;19926;-61
2022/05/28 01:58:46;;;;;;;;;;;;;;;13.45;42.35;102348.69;7356962;19;19927;-61
2022/05/28 02:01:11;;;;;;;;;;;;;;;13.41;42.85;102336.47;7364414;19;19926;-61
2022/05/28 02:03:39;;;;;;;;;;;;;;;13.38;42.61;102333.84;7365955;19;19927;-60
2022/05/28 02:06:04;;;;;;;;;;;;;;;13.35;42.95;102336.53;7363986;19;19926;-61
2022/05/28 02:08:32;;;;;;;;;;;;;;;13.28;42.92;102329.56;7366457;19;20259;-61
2022/05/28 02:11:14;;;;;;;;;;;;;;;13.30;42.44;102330.44;7365230;19;19929;-61
2022/05/28 02:13:48;;;;;;;;;;;;;;;13.28;43.34;102345.31;7361362;19;20381;-61
2022/05/28 02:16:17;;;;;;;;;;;;;;;13.26;43.20;102341.84;7365340;19;19930;-61
2022/05/28 02:18:52;;;;;;;;;;;;;;;13.28;43.16;102350.56;7362458;19;19910;-60
2022/05/28 02:21:22;;;;;;;;;;;;;;;13.28;43.77;102346.22;7363961;19;20319;-61
2022/05/28 02:23:48;;;;;;;;;;;;;;;13.29;43.94;102342.69;7365638;19;19917;-61
2022/05/28 02:26:29;;;;;;;;;;;;;;;13.30;43.93;102349.69;7365322;19;22260;-61
2022/05/28 02:28:55;;;;;;;;;;;;;;;13.32;43.71;102336.53;7365342;19;20005;-60
2022/05/28 02:31:30;;;;;;;;;;;;;;;13.31;43.20;102338.28;7366168;19;19930;-61
2022/05/28 02:33:56;;;;;;;;;;;;;;;13.30;43.47;102344.44;7363428;19;19923;-61
2022/05/28 02:36:22;;;;;;;;;;;;;;;13.28;43.35;102350.56;7364133;19;19946;-61
2022/05/28 02:38:47;;;;;;;;;;;;;;;13.24;43.75;102355.84;7362666;19;19946;-61
2022/05/28 02:41:13;;;;;;;;;;;;;;;13.21;43.88;102345.34;7364313;19;20035;-61
2022/05/28 02:43:38;;;;;;;;;;;;;;;13.19;43.76;102341.00;7361503;19;19923;-61
2022/05/28 02:46:04;;;;;;;;;;;;;;;13.16;43.81;102341.88;7366414;19;20380;-61
2022/05/28 02:48:30;;;;;;;;;;;;;;;13.12;44.03;102339.28;7364602;19;19922;-61
2022/05/28 02:51:14;;;;;;;;;;;;;;;13.09;43.81;102344.56;7360853;19;20334;-61
2022/05/28 02:53:40;;;;;;;;;;;;;;;13.03;43.79;102340.22;7362510;19;20481;-61
2022/05/28 02:56:06;;;;;;;;;;;;;;;12.99;43.63;102333.25;7363069;19;21194;-61
2022/05/28 02:58:31;;;;;;;;;;;;;;;12.93;43.67;102336.78;7353879;19;20000;-61
2022/05/28 03:00:57;;;;;;;;;;;;;;;12.90;44.00;102333.31;7365976;19;19926;-61
2022/05/28 03:03:23;;;;;;;;;;;;;;;12.84;44.08;102336.84;7363892;19;19923;-61
2022/05/28 03:05:51;;;;;;;;;;;;;;;12.81;43.90;102333.34;7349332;19;19918;-61
2022/05/28 03:08:16;;;;;;;;;;;;;;;12.75;44.29;102339.50;7365594;19;19925;-61
2022/05/28 03:10:42;;;;;;;;;;;;;;;12.71;44.30;102354.38;7365283;19;20259;-61
2022/05/28 03:13:07;;;;;;;;;;;;;;;12.67;44.47;102347.44;7360233;19;19906;-61
2022/05/28 03:15:33;;;;;;;;;;;;;;;12.63;44.12;102345.69;7364389;19;19919;-61
2022/05/28 03:17:59;;;;;;;;;;;;;;;12.60;44.25;102339.59;7354764;19;19950;-61
2022/05/28 03:20:25;;;;;;;;;;;;;;;12.55;44.26;102337.00;7362009;19;19940;-61
2022/05/28 03:22:50;;;;;;;;;;;;;;;12.52;44.16;102331.78;7364308;19;19919;-61
2022/05/28 03:25:16;;;;;;;;;;;;;;;12.49;44.47;102337.03;7365420;19;20271;-61
2022/05/28 03:27:41;;;;;;;;;;;;;;;12.44;44.05;102336.16;7364705;19;19922;-61
2022/05/28 03:30:06;;;;;;;;;;;;;;;12.39;43.96;102345.81;7362755;19;19914;-61
2022/05/28 03:32:32;;;;;;;;;;;;;;;12.34;44.27;102348.44;7361368;19;19919;-59
2022/05/28 03:34:57;;;;;;;;;;;;;;;12.31;44.69;102347.56;7364775;19;20332;-61
2022/05/28 03:37:22;;;;;;;;;;;;;;;12.27;44.54;102335.38;7361392;19;20324;-60
2022/05/28 03:39:47;;;;;;;;;;;;;;;12.24;44.60;102332.75;7364914;19;19923;-60
2022/05/28 03:42:13;;;;;;;;;;;;;;;12.20;44.98;102330.13;7364774;19;19919;-60
2022/05/28 03:44:38;;;;;;;;;;;;;;;12.16;44.28;102323.16;7364214;19;19922;-60
2022/05/28 03:47:04;;;;;;;;;;;;;;;12.12;44.30;102337.16;7363814;19;19927;-61
2022/05/28 03:49:34;;;;;;;;;;;;;;;12.07;44.47;102338.94;7364289;19;19926;-61
2022/05/28 03:52:01;;;;;;;;;;;;;;;12.03;44.84;102347.66;7363262;19;19927;-61
2022/05/28 03:54:27;;;;;;;;;;;;;;;11.99;45.14;102343.28;7364051;19;19971;-61
2022/05/28 03:56:55;;;;;;;;;;;;;;;11.97;45.02;102352.03;7365278;19;19934;-61
2022/05/28 03:59:20;;;;;;;;;;;;;;;11.92;44.53;102341.59;7365028;19;20036;-60
2022/05/28 04:01:45;;;;;;;;;;;;;;;11.90;43.77;102338.06;7362887;19;19919;-61
2022/05/28 04:04:10;;;;;;;;;;;;;;;11.84;43.88;102325.00;7363042;19;19928;-60
2022/05/28 04:06:36;;;;;;;;;;;;;;;11.79;44.27;102326.72;7362004;19;19919;-60
2022/05/28 04:09:03;;;;;;;;;;;;;;;11.73;44.56;102331.97;7363221;19;19943;-60
2022/05/28 04:11:28;;;;;;;;;;;;;;;11.67;44.39;102338.09;7360480;19;20013;-61
2022/05/28 04:13:56;;;;;;;;;;;;;;;11.62;44.31;102340.72;7361506;19;19957;-61
2022/05/28 04:16:22;;;;;;;;;;;;;;;11.57;44.49;102341.59;7364644;19;19926;-60
2022/05/28 04:18:47;;;;;;;;;;;;;;;11.52;43.99;102338.97;7360739;19;19926;-61
2022/05/28 04:21:12;;;;;;;;;;;;;;;11.47;44.65;102335.50;7364024;19;19914;-61
2022/05/28 04:23:38;;;;;;;;;;;;;;;11.42;44.98;102330.25;7364708;19;19915;-61
2022/05/28 04:26:03;;;;;;;;;;;;;;;11.39;44.92;102317.16;7368938;19;19907;-60
2022/05/28 04:28:28;;;;;;;;;;;;;;;11.36;44.91;102311.94;7369228;19;19926;-60
2022/05/28 04:30:54;;;;;;;;;;;;;;;11.34;45.11;102312.81;7369684;19;20632;-60
2022/05/28 04:33:19;;;;;;;;;;;;;;;11.31;44.87;102312.81;7370197;19;19919;-60
2022/05/28 04:35:44;;;;;;;;;;;;;;;11.29;45.17;102323.25;7369364;19;19918;-61
2022/05/28 04:38:09;;;;;;;;;;;;;;;11.27;45.66;102327.63;7368672;19;19927;-61
2022/05/28 04:40:35;;;;;;;;;;;;;;;11.26;45.54;102335.50;7369126;19;19922;-61
2022/05/28 04:43:00;;;;;;;;;;;;;;;11.23;45.53;102335.47;7367890;19;19926;-60
2022/05/28 04:45:26;;;;;;;;;;;;;;;11.21;44.62;102337.22;7371068;19;19919;-61
2022/05/28 04:47:51;;;;;;;;;;;;;;;11.19;45.13;102334.59;7364876;19;19922;-60
2022/05/28 04:50:16;;;;;;;;;;;;;;;11.17;45.79;102324.13;7367218;19;20010;-61
2022/05/28 04:52:41;;;;;;;;;;;;;;;11.16;45.99;102314.56;7369739;19;20373;-60
2022/05/28 04:55:08;;;;;;;;;;;;;;;11.16;45.80;102314.56;7367293;19;20342;-61
2022/05/28 04:57:33;;;;;;;;;;;;;;;11.16;44.53;102309.31;7369462;19;19939;-61
2022/05/28 04:59:58;;;;;;;;;;;;;;;11.15;44.94;102320.66;7366786;19;19976;-60
2022/05/28 05:02:24;;;;;;;;;;;;;;;11.12;45.39;102332.84;7368406;19;19927;-61
2022/05/28 05:04:53;;;;;;;;;;;;;;;11.10;45.80;102343.31;7368642;19;19954;-60
2022/05/28 05:07:19;;;;;;;;;;;;;;;11.07;46.08;102335.47;7366755;19;19962;-61
2022/05/28 05:09:44;;;;;;;;;;;;;;;11.05;45.91;102326.75;7367446;19;19997;-61
2022/05/28 05:12:09;;;;;;;;;;;;;;;11.06;46.33;102317.16;7368398;19;19976;-61
2022/05/28 05:14:34;;;;;;;;;;;;;;;11.13;46.00;102330.22;7368609;19;19923;-61
2022/05/28 05:17:00;;;;;;;;;;;;;;;11.16;45.72;102334.59;7366342;19;19935;-61
2022/05/28 05:19:25;;;;;;;;;;;;;;;11.18;45.70;102338.94;7365230;19;19911;-61
2022/05/28 05:21:52;;;;;;;;;;;;;;;11.21;46.31;102342.47;7367663;19;19982;-61
2022/05/28 05:24:18;;;;;;;;;;;;;;;11.24;46.05;102347.66;7369004;19;21149;-61
2022/05/28 05:26:43;;;;;;;;;;;;;;;11.26;46.53;102356.41;7366541;19;22228;-61
2022/05/28 05:29:08;;;;;;;;;;;;;;;11.28;46.02;102354.66;7367210;19;19915;-61
2022/05/28 05:31:33;;;;;;;;;;;;;;;11.31;46.25;102354.66;7367116;19;19919;-61
2022/05/28 05:33:59;;;;;;;;;;;;;;;11.34;46.69;102349.41;7367943;19;20247;-60
2022/05/28 05:36:24;;;;;;;;;;;;;;;11.36;46.17;102339.84;7364251;19;19922;-60
2022/05/28 05:38:49;;;;;;;;;;;;;;;11.40;46.92;102341.56;7368239;19;19926;-61
2022/05/28 05:41:14;;;;;;;;;;;;;;;11.42;46.39;102332.00;7366513;19;19919;-61
2022/05/28 05:43:39;;;;;;;;;;;;;;;11.43;46.38;102329.38;7366338;19;19930;-60
2022/05/28 05:46:05;;;;;;;;;;;;;;;11.48;46.89;102338.97;7367026;19;19911;-61
2022/05/28 05:48:30;;;;;;;;;;;;;;;11.52;46.77;102349.44;7368839;19;19923;-61
2022/05/28 05:50:56;;;;;;;;;;;;;;;11.55;46.98;102354.66;7367135;19;19919;-61
2022/05/28 05:53:21;;;;;;;;;;;;;;;11.59;46.58;102350.28;7367757;19;19940;-59
2022/05/28 05:55:47;;;;;;;;;;;;;;;11.63;47.01;102358.16;7365488;19;19919;-60
2022/05/28 05:58:13;;;;;;;;;;;;;;;11.67;46.17;102359.91;7364004;19;19971;-61
2022/05/28 06:00:39;;;;;;;;;;;;;;;11.73;47.11;102358.16;7366243;19;19915;-61
2022/05/28 06:03:04;;;;;;;;;;;;;;;11.75;46.90;102352.03;7366809;19;19918;-61
2022/05/28 06:05:30;;;;;;;;;;;;;;;11.79;46.91;102359.00;7365497;19;19907;-61
2022/05/28 06:07:55;;;;;;;;;;;;;;;11.84;46.91;102351.19;7367268;19;19926;-61
2022/05/28 06:10:20;;;;;;;;;;;;;;;11.87;46.54;102352.06;7365393;19;20394;-61
2022/05/28 06:12:45;;;;;;;;;;;;;;;11.91;47.04;102360.75;7366424;19;20709;-61
2022/05/28 06:15:12;;;;;;;;;;;;;;;11.96;47.34;102372.09;7364774;19;19926;-60
2022/05/28 06:17:37;;;;;;;;;;;;;;;11.99;47.25;102374.72;7366616;19;19946;-60
2022/05/28 06:20:03;;;;;;;;;;;;;;;12.05;47.11;102371.22;7365022;19;20771;-61
2022/05/28 06:22:29;;;;;;;;;;;;;;;12.09;46.81;102357.25;7363843;19;19923;-60
2022/05/28 06:24:54;;;;;;;;;;;;;;;12.14;47.02;102355.47;7366933;19;19929;-60
2022/05/28 06:27:19;;;;;;;;;;;;;;;12.18;46.86;102352.84;7366649;19;20018;-61
2022/05/28 06:29:45;;;;;;;;;;;;;;;12.18;47.28;102347.63;7363330;19;19990;-60
2022/05/28 06:32:10;;;;;;;;;;;;;;;12.29;47.49;102359.81;7365346;19;19990;-61
2022/05/28 06:34:35;;;;;;;;;;;;;;;12.35;47.77;102362.41;7362521;19;19943;-60
2022/05/28 06:37:00;;;;;;;;;;;;;;;12.40;47.70;102358.00;7363456;19;20422;-61
2022/05/28 06:39:26;;;;;;;;;;;;;;;12.47;47.86;102365.00;7366612;19;19927;-60
2022/05/28 06:41:51;;;;;;;;;;;;;;;12.54;47.96;102356.22;7366526;19;19936;-61
2022/05/28 06:44:16;;;;;;;;;;;;;;;12.62;48.06;102353.53;7365536;19;19938;-61
2022/05/28 06:46:41;;;;;;;;;;;;;;;12.68;47.25;102354.41;7364322;19;19915;-60
2022/05/28 06:49:07;;;;;;;;;;;;;;;12.76;47.83;102350.88;7366868;19;19932;-61
2022/05/28 06:51:32;;;;;;;;;;;;;;;12.83;47.67;102353.47;7362715;19;19927;-61
2022/05/28 06:53:57;;;;;;;;;;;;;;;12.91;47.71;102345.53;7360352;19;19923;-61
2022/05/28 06:56:23;;;;;;;;;;;;;;;12.98;47.58;102352.50;7356566;19;19915;-61
2022/05/28 06:58:48;;;;;;;;;;;;;;;13.06;47.61;102355.94;7362628;19;19923;-60
2022/05/28 07:01:15;;;;;;;;;;;;;;;13.12;47.20;102352.38;7360804;19;20006;-60
2022/05/28 07:03:42;;;;;;;;;;;;;;;13.21;47.76;102361.09;7361294;19;20291;-61
2022/05/28 07:06:07;;;;;;;;;;;;;;;13.28;47.56;102361.94;7362981;19;19970;-61
2022/05/28 07:08:33;;;;;;;;;;;;;;;13.37;46.86;102368.84;7362352;19;20409;-61
2022/05/28 07:10:59;;;;;;;;;;;;;;;13.45;47.26;102365.31;7358126;19;19953;-61
2022/05/28 07:13:25;;;;;;;;;;;;;;;13.53;47.52;102367.84;7362004;19;19911;-60
2022/05/28 07:15:51;;;;;;;;;;;;;;;13.60;47.53;102369.56;7360798;19;20414;-61
2022/05/28 07:18:17;;;;;;;;;;;;;;;13.65;47.25;102359.88;7361896;19;19929;-60
2022/05/28 07:20:42;;;;;;;;;;;;;;;13.72;47.53;102355.44;7354733;19;19923;-61
2022/05/28 07:23:09;;;;;;;;;;;;;;;13.77;47.35;102362.38;7358234;19;19936;-61
2022/05/28 07:25:34;;;;;;;;;;;;;;;13.84;47.52;102364.94;7352442;19;19928;-61
2022/05/28 07:27:59;;;;;;;;;;;;;;;13.91;47.66;102369.28;7358180;19;19928;-60
2022/05/28 07:30:25;;;;;;;;;;;;;;;13.98;47.61;102365.69;7360321;19;19950;-60
2022/05/28 07:32:50;;;;;;;;;;;;;;;14.06;47.45;102361.22;7361505;19;19922;-61
2022/05/28 07:35:15;;;;;;;;;;;;;;;14.16;47.79;102356.75;7359022;19;20638;-61
2022/05/28 07:37:40;;;;;;;;;;;;;;;14.26;47.79;102356.63;7362081;19;20606;-61
2022/05/28 07:40:06;;;;;;;;;;;;;;;14.38;47.86;102357.38;7356112;19;19923;-60
2022/05/28 07:42:31;;;;;;;;;;;;;;;14.53;47.40;102359.84;7361826;19;19939;-61
2022/05/28 07:44:56;;;;;;;;;;;;;;;14.66;47.26;102361.44;7357866;19;19926;-61
2022/05/28 07:47:22;;;;;;;;;;;;;;;14.83;47.28;102360.31;7360926;19;19941;-61
2022/05/28 07:49:47;;;;;;;;;;;;;;;14.99;47.02;102361.84;7362061;19;21983;-60
2022/05/28 07:52:12;;;;;;;;;;;;;;;15.14;47.50;102360.75;7359182;19;19914;-61
2022/05/28 07:54:37;;;;;;;;;;;;;;;15.25;46.96;102362.31;7358401;19;19934;-61
2022/05/28 07:57:03;;;;;;;;;;;;;;;15.36;46.88;102354.28;7363527;19;19922;-61
2022/05/28 07:59:29;;;;;;;;;;;;;;;15.46;46.65;102354.97;7359232;19;22275;-61
2022/05/28 08:01:55;;;;;;;;;;;;;;;15.51;46.96;102353.13;7357013;19;19923;-61
2022/05/28 08:04:20;;;;;;;;;;;;;;;15.59;46.74;102356.50;7362974;19;19922;-61
2022/05/28 08:06:45;;;;;;;;;;;;;;;15.64;46.51;102361.72;7361760;19;20251;-61
2022/05/28 08:09:10;;;;;;;;;;;;;;;15.68;45.87;102356.38;7362215;19;20530;-61
2022/05/28 08:11:36;;;;;;;;;;;;;;;15.74;46.14;102363.31;7343885;19;19925;-61
2022/05/28 08:14:02;;;;;;;;;;;;;;;15.78;46.25;102352.69;7361578;19;19915;-61
2022/05/28 08:16:27;;;;;;;;;;;;;;;15.83;46.17;102350.84;7359062;19;20324;-61
2022/05/28 08:18:52;;;;;;;;;;;;;;;15.89;45.91;102351.63;7361761;19;19950;-61
2022/05/28 08:24:01;;;;;;;;;;;;;;;15.97;45.85;102353.22;7361975;19;19933;-61
2022/05/28 08:26:27;;;;;;;;;;;;;;;16.01;45.99;102354.03;7361393;19;19993;-61
2022/05/28 08:28:53;;;;;;;;;;;;;;;16.05;46.03;102355.72;7360565;19;20000;-61
2022/05/28 08:31:18;;;;;;;;;;;;;;;16.09;45.74;102352.13;7361842;19;19922;-61
2022/05/28 08:33:44;;;;;;;;;;;;;;;16.13;45.61;102348.53;7356848;19;19943;-61
2022/05/28 08:36:09;;;;;;;;;;;;;;;16.17;45.94;102344.94;7362420;19;19919;-61
2022/05/28 08:38:35;;;;;;;;;;;;;;;16.22;45.56;102342.19;7359669;19;19946;-61
2022/05/28 08:41:03;;;;;;;;;;;;;;;16.25;45.69;102337.72;7361019;19;19910;-61
2022/05/28 08:43:29;;;;;;;;;;;;;;;16.31;45.85;102337.59;7358874;19;19919;-61
2022/05/28 08:45:55;;;;;;;;;;;;;;;16.39;45.71;102328.69;7361084;19;20823;-61
2022/05/28 08:48:26;;;;;;;;;;;;;;;16.47;45.92;102326.75;7360756;19;19923;-61
2022/05/28 08:50:57;;;;;;;;;;;;;;;16.54;45.61;102333.63;7361177;19;19978;-61
2022/05/28 08:53:26;;;;;;;;;;;;;;;16.58;45.49;102340.59;7361087;19;19948;-61
2022/05/28 08:55:53;;;;;;;;;;;;;;;16.64;45.56;102344.84;7353840;19;19919;-61
2022/05/28 08:58:21;;;;;;;;;;;;;;;16.70;45.72;102345.59;7360991;19;20252;-61
2022/05/28 09:00:57;;;;;;;;;;;;;;;16.77;45.67;102326.09;7359706;19;19911;-61
2022/05/28 09:03:27;;;;;;;;;;;;;;;16.89;45.54;102326.75;7354609;19;19911;-61
2022/05/28 09:06:10;;;;;;;;;;;;;;;17.02;45.90;102330.81;7357010;19;19921;-61
2022/05/28 09:08:40;;;;;;;;;;;;;;;17.18;45.73;102326.91;7358979;19;19925;-61
2022/05/28 09:11:06;;;;;;;;;;;;;;;17.32;45.68;102330.06;7360623;19;19926;-61
2022/05/28 09:13:41;;;;;;;;;;;;;;;17.47;45.43;102330.59;7365997;19;19911;-62
2022/05/28 09:16:10;;;;;;;;;;;;;;;17.61;45.53;102325.84;7367545;19;20434;-61
2022/05/28 09:18:37;;;;;;;;;;;;;;;17.75;45.29;102326.38;7365313;19;19925;-62
2022/05/28 09:21:04;;;;;;;;;;;;;;;17.86;45.08;102334.00;7362214;19;19966;-61
2022/05/28 09:23:45;;;;;;;;;;;;;;;18.01;45.05;102341.53;7365573;19;19922;-62
2022/05/28 09:26:12;;;;;;;;;;;;;;;18.24;44.76;102337.34;7361384;19;19947;-62
2022/05/28 09:28:58;;;;;;;;;;;;;;;18.47;45.02;102334.91;7367245;19;19926;-62
2022/05/28 09:31:29;;;;;;;;;;;;;;;18.84;44.69;102320.59;7363691;19;19918;-62
2022/05/28 09:34:15;;;;;;;;;;;;;;;19.26;45.07;102315.72;7366537;19;19973;-62
2022/05/28 09:36:47;;;;;;;;;;;;;;;19.79;44.95;102315.66;7349206;19;19922;-62
2022/05/28 09:39:25;;;;;;;;;;;;;;;20.29;44.28;102309.44;7366532;19;20258;-62
2022/05/28 09:41:53;;;;;;;;;;;;;;;20.75;43.93;102313.00;7365379;19;19930;-62
2022/05/28 09:44:27;;;;;;;;;;;;;;;21.05;43.66;102324.19;7367070;19;19918;-62
2022/05/28 09:46:53;;;;;;;;;;;;;;;21.27;42.94;102319.69;7365684;19;20582;-62
2022/05/28 09:49:20;;;;;;;;;;;;;;;21.39;43.16;102316.56;7364745;19;19911;-62
2022/05/28 09:51:55;;;;;;;;;;;;;;;21.52;42.92;102316.91;7365280;19;19958;-63
2022/05/28 09:54:25;;;;;;;;;;;;;;;21.79;42.91;102319.28;7363834;19;20777;-63
2022/05/28 09:56:53;;;;;;;;;;;;;;;22.18;42.79;102312.22;7366436;19;19930;-63
2022/05/28 09:59:18;;;;;;;;;;;;;;;22.60;42.37;102302.28;7366377;19;20493;-62
2022/05/28 10:01:55;;;;;;;;;;;;;;;22.92;41.89;102314.09;7364483;19;19914;-63
2022/05/28 10:04:30;;;;;;;;;;;;;;;23.19;41.83;102312.72;7366051;19;20002;-63
2022/05/28 10:06:56;;;;;;;;;;;;;;;23.34;41.13;102321.75;7361418;19;19914;-62
2022/05/28 10:09:26;;;;;;;;;;;;;;;23.42;41.47;102321.34;7364200;19;20025;-62
2022/05/28 10:12:01;;;;;;;;;;;;;;;23.48;41.33;102316.59;7363398;19;20665;-62
2022/05/28 10:14:30;;;;;;;;;;;;;;;23.62;41.00;102315.00;7365305;19;19926;-62
2022/05/28 10:16:57;;;;;;;;;;;;;;;23.75;40.95;102305.44;7363387;19;19915;-63
2022/05/28 10:19:26;;;;;;;;;;;;;;;24.00;41.36;102295.19;7364023;19;19945;-63
2022/05/28 10:21:53;;;;;;;;;;;;;;;24.37;41.03;102295.88;7364376;19;19931;-63
2022/05/28 10:24:19;;;;;;;;;;;;;;;24.77;40.83;102296.31;7363746;19;19935;-62
2022/05/28 10:26:46;;;;;;;;;;;;;;;25.16;40.80;102293.19;7364683;19;19930;-63
2022/05/28 10:29:38;;;;;;;;;;;;;;;25.41;40.25;102292.56;7362556;19;19939;-62
2022/05/28 10:32:16;;;;;;;;;;;;;;;25.55;39.61;102299.78;7362076;19;19929;-62
2022/05/28 10:34:41;;;;;;;;;;;;;;;25.61;39.64;102310.97;7363400;19;19986;-62
2022/05/28 10:37:12;;;;;;;;;;;;;;;25.70;39.08;102308.66;7363612;19;20027;-63
2022/05/28 10:39:38;;;;;;;;;;;;;;;25.80;39.34;102296.47;7362729;19;19923;-62
2022/05/28 10:42:04;;;;;;;;;;;;;;;25.97;39.44;102293.63;7364002;19;19914;-62
2022/05/28 10:44:29;;;;;;;;;;;;;;;26.17;39.39;102296.88;7363071;19;21570;-62
2022/05/28 10:47:13;;;;;;;;;;;;;;;26.36;39.04;102292.06;7365111;19;19919;-62
2022/05/28 10:49:41;;;;;;;;;;;;;;;26.53;38.79;102283.81;7361001;19;20011;-62
2022/05/28 10:52:28;;;;;;;;;;;;;;;26.65;38.22;102288.38;7364307;19;20532;-62
2022/05/28 10:55:05;;;;;;;;;;;;;;;26.73;37.90;102289.72;7362231;19;20714;-62
2022/05/28 10:57:40;;;;;;;;;;;;;;;26.79;37.80;102294.66;7363618;19;20518;-62
2022/05/28 11:00:41;;;;;;;;;;;;;;;26.85;37.84;102304.97;7362750;19;20264;-62
2022/05/28 11:03:25;;;;;;;;;;;;;;;26.96;38.03;102296.22;7256412;19;2004234;-62
2022/05/28 11:05:50;;;;;;;;;;;;;;;27.14;37.83;102293.19;7363074;19;19918;-62
2022/05/28 11:08:18;;;;;;;;;;;;;;;27.42;38.44;102289.50;7363901;19;22392;-62
2022/05/28 11:10:59;;;;;;;;;;;;;;;27.84;37.92;102289.34;7362887;19;20244;-62
2022/05/28 11:13:40;;;;;;;;;;;;;;;28.35;38.10;102284.75;7361750;19;19919;-62
2022/05/28 11:16:20;;;;;;;;;;;;;;;28.83;38.17;102283.91;7361197;19;19926;-62
2022/05/28 11:19:03;;;;;;;;;;;;;;;29.19;37.95;102288.38;7360749;19;19925;-62
2022/05/28 11:21:54;;;;;;;;;;;;;;;29.45;36.99;102291.72;7361965;19;20263;-62
2022/05/28 11:24:23;;;;;;;;;;;;;;;29.71;36.05;102293.31;7258895;19;2004455;-62
2022/05/28 11:27:00;;;;;;;;;;;;;;;29.93;35.92;102281.69;7363349;19;19918;-60
2022/05/28 11:29:28;;;;;;;;;;;;;;;30.19;36.73;102279.59;7363331;19;19959;-62
2022/05/28 11:32:00;;;;;;;;;;;;;;;30.43;35.87;102284.00;7359117;19;19922;-60
2022/05/28 11:34:31;;;;;;;;;;;;;;;30.62;35.48;102284.19;7350319;19;20332;-62
2022/05/28 11:37:23;;;;;;;;;;;;;;;30.82;35.01;102287.97;7356199;19;19924;-62
2022/05/28 11:39:55;;;;;;;;;;;;;;;31.08;35.03;102279.50;7254398;19;2004384;-62
2022/05/28 11:42:20;;;;;;;;;;;;;;;31.29;35.46;102279.53;7360905;19;19918;-62
2022/05/28 11:44:56;;;;;;;;;;;;;;;31.42;34.14;102282.88;7361896;19;19914;-62
2022/05/28 11:47:24;;;;;;;;;;;;;;;31.47;34.12;102270.69;7356384;19;19934;-62
2022/05/28 11:52:42;;;;;;;;;;;;;;;31.50;33.97;102275.84;7363392;19;19921;-62
2022/05/28 11:55:28;;;;;;;;;;;;;;;31.56;33.90;102274.44;7358317;19;19911;-62
2022/05/28 11:57:56;;;;;;;;;;;;;;;31.65;34.80;102268.25;7360071;19;19933;-61
2022/05/28 12:00:23;;;;;;;;;;;;;;;31.68;33.16;102273.38;7358382;19;19926;-63
2022/05/28 12:02:57;;;;;;;;;;;;;;;31.85;33.92;102273.78;7360612;19;19922;-63
2022/05/28 12:05:24;;;;;;;;;;;;;;;32.05;33.64;102277.41;7357189;19;19919;-62
2022/05/28 12:07:59;;;;;;;;;;;;;;;32.16;33.37;102256.53;7359227;19;19946;-62
2022/05/28 12:10:34;;;;;;;;;;;;;;;32.16;33.32;102272.75;7359691;19;19982;-62
2022/05/28 12:13:01;;;;;;;;;;;;;;;32.17;32.85;102266.34;7360840;19;20415;-62
2022/05/28 12:15:28;;;;;;;;;;;;;;;32.33;33.39;102260.41;7355710;19;19939;-62
2022/05/28 12:18:04;;;;;;;;;;;;;;;32.65;33.09;102252.09;7356559;19;20494;-62
2022/05/28 12:20:34;;;;;;;;;;;;;;;33.13;33.40;102256.63;7344994;19;19923;-62
2022/05/28 12:23:01;;;;;;;;;;;;;;;33.56;33.55;102248.03;7347769;19;19931;-60
2022/05/28 12:25:26;;;;;;;;;;;;;;;33.89;32.66;102242.19;7361547;19;19922;-60
2022/05/28 12:27:55;;;;;;;;;;;;;;;34.14;32.96;102252.34;7359283;19;19910;-60
2022/05/28 12:30:24;;;;;;;;;;;;;;;34.28;32.36;102248.28;7363569;19;19919;-60
2022/05/28 12:32:50;;;;;;;;;;;;;;;34.28;31.58;102243.69;7356894;19;20277;-62
2022/05/28 12:35:15;;;;;;;;;;;;;;;34.25;31.16;102243.13;7358980;19;19918;-62
2022/05/28 12:37:44;;;;;;;;;;;;;;;34.19;30.81;102243.75;7358688;19;20595;-62
2022/05/28 12:40:18;;;;;;;;;;;;;;;34.13;30.48;102245.22;7358892;19;19927;-62
2022/05/28 12:42:43;;;;;;;;;;;;;;;33.99;30.48;102237.59;7359500;19;20346;-62
2022/05/28 12:45:14;;;;;;;;;;;;;;;33.82;30.05;102234.66;7361989;19;19932;-62
2022/05/28 12:47:40;;;;;;;;;;;;;;;33.66;30.39;102236.28;7364840;19;19919;-62